createdAt,value
2023-04-09T00:01:37.620Z,7.93
2023-04-09T00:04:05.670Z,6.60
2023-04-09T00:06:33.506Z,8.10
2023-04-09T00:09:01.276Z,7.03
2023-04-09T00:11:30.474Z,6.63
2023-04-09T00:13:59.164Z,7.37
2023-04-09T00:16:29.843Z,8.43
2023-04-09T00:18:57.712Z,7.20
2023-04-09T00:21:27.027Z,8.70
2023-04-09T00:23:54.850Z,8.07
2023-04-09T00:26:22.825Z,8.57
2023-04-09T00:28:52.209Z,8.67
2023-04-09T00:31:20.887Z,7.97
2023-04-09T00:33:48.890Z,7.37
2023-04-09T00:36:16.823Z,8.67
2023-04-09T00:38:44.977Z,7.13
2023-04-09T00:41:12.910Z,8.07
2023-04-09T00:43:43.435Z,7.40
2023-04-09T00:46:12.691Z,7.67
2023-04-09T00:48:41.258Z,8.40
2023-04-09T00:51:09.737Z,6.93
2023-04-09T00:53:37.718Z,8.10
2023-04-09T00:56:06.971Z,7.60
2023-04-09T00:58:35.027Z,7.23
2023-04-09T01:01:02.987Z,7.47
2023-04-09T01:03:32.387Z,7.87
2023-04-09T01:06:08.756Z,8.17
2023-04-09T01:08:47.412Z,7.60
2023-04-09T01:11:28.330Z,8.00
2023-04-09T01:14:02.383Z,7.80
2023-04-09T01:16:31.689Z,8.57
2023-04-09T01:19:07.978Z,8.47
2023-04-09T01:21:36.462Z,8.73
2023-04-09T01:24:17.686Z,9.27
2023-04-09T01:26:57.059Z,7.90
2023-04-09T01:29:27.985Z,7.17
2023-04-09T01:31:56.927Z,7.30
2023-04-09T01:34:27.256Z,8.00
2023-04-09T01:36:59.238Z,7.10
2023-04-09T01:39:28.058Z,7.63
2023-04-09T01:41:57.867Z,8.53
2023-04-09T01:44:28.529Z,8.00
2023-04-09T01:46:57.686Z,7.87
2023-04-09T01:49:25.539Z,8.40
2023-04-09T01:51:53.499Z,8.17
2023-04-09T01:54:21.362Z,6.97
2023-04-09T01:56:50.031Z,8.20
2023-04-09T01:59:17.833Z,7.93
2023-04-09T02:01:48.461Z,8.43
2023-04-09T02:04:22.731Z,7.80
2023-04-09T02:06:59.261Z,7.37
2023-04-09T02:09:30.520Z,6.97
2023-04-09T02:12:02.653Z,8.20
2023-04-09T02:14:33.755Z,7.60
2023-04-09T02:17:03.437Z,8.23
2023-04-09T02:19:40.514Z,7.70
2023-04-09T02:22:08.313Z,7.97
2023-04-09T02:24:36.322Z,8.90
2023-04-09T02:27:04.550Z,8.57
2023-04-09T02:29:32.700Z,8.60
2023-04-09T02:32:01.837Z,7.53
2023-04-09T02:34:29.660Z,8.50
2023-04-09T02:36:57.593Z,7.80
2023-04-09T02:39:25.548Z,8.57
2023-04-09T02:41:53.922Z,9.33
2023-04-09T02:44:21.857Z,8.57
2023-04-09T02:46:49.825Z,8.13
2023-04-09T02:49:19.191Z,6.83
2023-04-09T02:51:47.138Z,7.80
2023-04-09T02:54:15.372Z,8.60
2023-04-09T02:56:43.105Z,7.90
2023-04-09T02:59:10.979Z,8.20
2023-04-09T03:01:40.111Z,8.07
2023-04-09T03:04:08.398Z,7.83
2023-04-09T03:06:37.675Z,7.83
2023-04-09T03:09:05.568Z,7.93
2023-04-09T03:11:33.550Z,8.70
2023-04-09T03:14:01.356Z,7.57
2023-04-09T03:16:29.209Z,8.03
2023-04-09T03:18:57.026Z,7.47
2023-04-09T03:21:24.881Z,7.20
2023-04-09T03:23:54.143Z,7.60
2023-04-09T03:26:21.935Z,9.60
2023-04-09T03:28:49.907Z,7.70
2023-04-09T03:31:17.939Z,8.33
2023-04-09T03:33:45.806Z,8.73
2023-04-09T03:36:13.670Z,8.30
2023-04-09T03:38:41.432Z,8.80
2023-04-09T03:41:10.634Z,9.73
2023-04-09T03:43:40.476Z,7.27
2023-04-09T03:46:13.286Z,9.47
2023-04-09T03:48:41.240Z,7.57
2023-04-09T03:51:12.749Z,8.50
2023-04-09T03:53:40.618Z,8.40
2023-04-09T03:56:10.728Z,8.83
2023-04-09T03:58:38.763Z,8.17
2023-04-09T04:01:06.763Z,8.30
2023-04-09T04:03:34.725Z,7.77
2023-04-09T04:06:03.483Z,7.60
2023-04-09T04:08:31.366Z,9.23
2023-04-09T04:11:04.594Z,8.30
2023-04-09T04:13:33.777Z,7.97
2023-04-09T04:16:01.738Z,8.27
2023-04-09T04:18:29.731Z,8.17
2023-04-09T04:20:57.542Z,7.60
2023-04-09T04:23:25.374Z,8.30
2023-04-09T04:25:53.886Z,8.33
2023-04-09T04:28:21.796Z,7.27
2023-04-09T04:30:50.987Z,7.30
2023-04-09T04:33:18.889Z,7.10
2023-04-09T04:35:46.746Z,7.57
2023-04-09T04:38:14.525Z,7.87
2023-04-09T04:40:42.324Z,7.77
2023-04-09T04:43:10.207Z,6.97
2023-04-09T04:45:38.070Z,6.77
2023-04-09T04:48:07.362Z,7.00
2023-04-09T04:50:35.199Z,6.77
2023-04-09T04:53:02.992Z,6.53
2023-04-09T04:55:30.786Z,7.10
2023-04-09T04:57:58.703Z,7.47
2023-04-09T05:00:26.581Z,7.20
2023-04-09T05:02:54.534Z,6.63
2023-04-09T05:05:23.844Z,6.73
2023-04-09T05:07:51.872Z,7.73
2023-04-09T05:10:19.818Z,6.50
2023-04-09T05:12:47.576Z,6.40
2023-04-09T05:15:15.447Z,7.83
2023-04-09T05:17:43.999Z,8.07
2023-04-09T05:20:13.053Z,7.87
2023-04-09T05:22:42.248Z,6.50
2023-04-09T05:25:10.745Z,6.73
2023-04-09T05:27:38.510Z,7.07
2023-04-09T05:30:07.541Z,7.43
2023-04-09T05:32:35.419Z,6.60
2023-04-09T05:35:03.168Z,7.00
2023-04-09T05:37:30.935Z,5.87
2023-04-09T05:40:00.041Z,6.63
2023-04-09T05:42:27.871Z,7.83
2023-04-09T05:44:55.773Z,8.57
2023-04-09T05:47:23.780Z,8.07
2023-04-09T05:49:51.616Z,8.07
2023-04-09T05:52:19.732Z,8.13
2023-04-09T05:54:47.539Z,8.00
2023-04-09T05:57:16.845Z,8.40
2023-04-09T05:59:44.649Z,6.70
2023-04-09T06:02:12.569Z,9.37
2023-04-09T06:04:40.398Z,7.27
2023-04-09T06:07:08.140Z,7.87
2023-04-09T06:09:35.975Z,7.13
2023-04-09T06:12:06.327Z,7.00
2023-04-09T06:14:35.483Z,7.33
2023-04-09T06:17:03.456Z,7.60
2023-04-09T06:19:31.453Z,8.80
2023-04-09T06:21:59.239Z,8.60
2023-04-09T06:24:27.061Z,9.03
2023-04-09T06:26:54.808Z,9.17
2023-04-09T06:29:24.276Z,7.63
2023-04-09T06:31:53.973Z,8.70
2023-04-09T06:34:21.883Z,9.60
2023-04-09T06:36:49.619Z,8.90
2023-04-09T06:39:17.472Z,9.67
2023-04-09T06:41:46.367Z,9.70
2023-04-09T06:44:14.313Z,9.40
2023-04-09T06:46:42.082Z,8.57
2023-04-09T06:49:11.279Z,9.50
2023-04-09T06:51:39.115Z,7.37
2023-04-09T06:54:07.202Z,7.17
2023-04-09T06:56:35.312Z,7.83
2023-04-09T06:59:03.661Z,7.60
2023-04-09T07:01:31.753Z,6.43
2023-04-09T07:03:59.703Z,6.73
2023-04-09T07:06:28.941Z,6.80
2023-04-09T07:08:56.739Z,6.07
2023-04-09T07:11:24.673Z,7.17
2023-04-09T07:13:52.860Z,7.53
2023-04-09T07:16:21.432Z,6.80
2023-04-09T07:18:49.384Z,6.67
2023-04-09T07:21:20.378Z,7.23
2023-04-09T07:23:49.506Z,7.73
2023-04-09T07:26:17.263Z,6.93
2023-04-09T07:28:45.426Z,7.40
2023-04-09T07:31:13.999Z,7.00
2023-04-09T07:33:41.869Z,8.00
2023-04-09T07:36:09.781Z,7.73
2023-04-09T07:38:37.693Z,6.47
2023-04-09T07:41:06.869Z,6.83
2023-04-09T07:43:34.627Z,6.80
2023-04-09T07:46:02.417Z,6.60
2023-04-09T07:48:30.191Z,5.80
2023-04-09T07:50:58.022Z,7.13
2023-04-09T07:53:25.964Z,6.70
2023-04-09T07:55:53.738Z,6.67
2023-04-09T07:58:22.880Z,6.57
2023-04-09T08:00:50.781Z,6.00
2023-04-09T08:03:19.377Z,6.87
2023-04-09T08:05:47.424Z,6.03
2023-04-09T08:08:15.282Z,6.70
2023-04-09T08:10:43.120Z,7.33
2023-04-09T08:13:12.044Z,7.30
2023-04-09T08:15:41.415Z,6.17
2023-04-09T08:18:09.440Z,7.10
2023-04-09T08:20:37.773Z,7.10
2023-04-09T08:23:05.563Z,7.60
2023-04-09T08:25:33.412Z,5.57
2023-04-09T08:28:01.191Z,7.03
2023-04-09T08:30:28.981Z,7.87
2023-04-09T08:32:58.151Z,6.53
2023-04-09T08:35:26.068Z,6.80
2023-04-09T08:37:53.806Z,7.23
2023-04-09T08:40:21.872Z,7.20
2023-04-09T08:42:55.238Z,6.63
2023-04-09T08:45:23.281Z,6.90
2023-04-09T08:47:53.208Z,7.67
2023-04-09T08:50:23.169Z,7.30
2023-04-09T08:52:51.587Z,7.20
2023-04-09T08:55:19.426Z,8.40
2023-04-09T08:57:47.295Z,8.40
2023-04-09T09:00:15.422Z,7.87
2023-04-09T09:03:02.936Z,7.30
2023-04-09T09:05:38.970Z,8.60
2023-04-09T09:08:08.766Z,8.70
2023-04-09T09:10:41.326Z,8.40
2023-04-09T09:13:20.240Z,7.97
2023-04-09T09:15:50.399Z,8.40
2023-04-09T09:18:19.343Z,8.37
2023-04-09T09:20:49.039Z,7.77
2023-04-09T09:23:16.943Z,8.60
2023-04-09T09:25:44.750Z,8.53
2023-04-09T09:28:13.484Z,10.30
2023-04-09T09:30:41.914Z,6.90
2023-04-09T09:33:11.286Z,8.57
2023-04-09T09:35:50.965Z,8.67
2023-04-09T09:38:19.362Z,8.60
2023-04-09T09:40:47.694Z,8.13
2023-04-09T09:43:15.877Z,8.57
2023-04-09T09:45:44.308Z,8.87
2023-04-09T09:48:13.044Z,8.60
2023-04-09T09:50:42.074Z,9.30
2023-04-09T09:53:12.301Z,8.70
2023-04-09T09:55:41.502Z,9.10
2023-04-09T09:58:13.640Z,9.80
2023-04-09T10:00:41.706Z,9.73
2023-04-09T10:03:15.766Z,9.80
2023-04-09T10:05:44.210Z,9.43
2023-04-09T10:08:14.070Z,10.00
2023-04-09T10:10:43.544Z,7.80
2023-04-09T10:13:17.560Z,8.93
2023-04-09T10:15:45.946Z,9.50
2023-04-09T10:18:13.917Z,9.20
2023-04-09T10:20:48.848Z,9.17
2023-04-09T10:23:33.675Z,8.70
2023-04-09T10:26:01.491Z,7.40
2023-04-09T10:28:29.817Z,7.87
2023-04-09T10:30:58.544Z,9.80
2023-04-09T10:33:29.008Z,9.07
2023-04-09T10:36:01.531Z,8.70
2023-04-09T10:38:38.321Z,7.87
2023-04-09T10:41:16.185Z,10.37
2023-04-09T10:43:44.363Z,8.20
2023-04-09T10:46:28.068Z,9.70
2023-04-09T10:49:12.307Z,8.30
2023-04-09T10:51:41.051Z,8.77
2023-04-09T10:54:43.672Z,9.87
2023-04-09T10:57:16.410Z,10.03
2023-04-09T10:59:46.023Z,9.40
2023-04-09T11:02:56.668Z,9.23
2023-04-09T11:05:32.214Z,8.90
2023-04-09T11:08:10.598Z,8.53
2023-04-09T11:10:41.081Z,9.27
2023-04-09T11:13:12.623Z,9.37
2023-04-09T11:15:40.983Z,8.80
2023-04-09T11:18:09.777Z,9.83
2023-04-09T11:20:37.882Z,8.57
2023-04-09T11:23:06.577Z,10.20
2023-04-09T11:25:35.507Z,8.90
2023-04-09T11:28:06.080Z,8.60
2023-04-09T11:30:35.683Z,9.67
2023-04-09T11:33:03.757Z,8.43
2023-04-09T11:35:31.584Z,8.57
2023-04-09T11:37:59.449Z,8.73
2023-04-09T11:40:29.011Z,10.10
2023-04-09T11:42:57.467Z,9.27
2023-04-09T11:45:28.702Z,9.83
2023-04-09T11:47:56.982Z,8.90
2023-04-09T11:50:25.219Z,8.80
2023-04-09T11:52:53.348Z,10.50
2023-04-09T11:55:25.479Z,9.90
2023-04-09T11:57:55.320Z,9.83
2023-04-09T12:00:24.724Z,11.20
2023-04-09T12:03:03.800Z,11.67
2023-04-09T12:05:33.993Z,10.80
2023-04-09T12:08:04.778Z,9.50
2023-04-09T12:10:34.907Z,9.30
2023-04-09T12:13:04.176Z,7.87
2023-04-09T12:15:36.751Z,9.60
2023-04-09T12:18:09.592Z,10.17
2023-04-09T12:20:39.530Z,10.17
2023-04-09T12:23:08.422Z,8.50
2023-04-09T12:25:38.207Z,9.27
2023-04-09T12:28:06.664Z,8.93
2023-04-09T12:30:35.368Z,8.20
2023-04-09T12:33:05.748Z,9.33
2023-04-09T12:35:34.471Z,9.27
2023-04-09T12:38:02.453Z,8.63
2023-04-09T12:40:30.448Z,9.67
2023-04-09T12:42:58.233Z,9.20
2023-04-09T12:45:26.289Z,7.70
2023-04-09T12:47:54.221Z,9.13
2023-04-09T12:50:23.419Z,8.77
2023-04-09T12:52:51.467Z,8.60
2023-04-09T12:55:19.310Z,9.20
2023-04-09T12:57:47.599Z,8.80
2023-04-09T13:00:16.587Z,8.83
2023-04-09T13:02:44.544Z,8.40
2023-04-09T13:05:12.556Z,7.83
2023-04-09T13:07:43.023Z,7.80
2023-04-09T13:10:11.590Z,8.03
2023-04-09T13:12:39.590Z,8.17
2023-04-09T13:15:08.264Z,7.70
2023-04-09T13:17:36.037Z,9.40
2023-04-09T13:20:04.502Z,9.00
2023-04-09T13:22:32.306Z,8.87
2023-04-09T13:25:01.482Z,8.57
2023-04-09T13:27:29.361Z,8.70
2023-04-09T13:29:57.155Z,6.87
2023-04-09T13:32:27.173Z,9.37
2023-04-09T13:34:55.731Z,8.33
2023-04-09T13:37:23.611Z,9.30
2023-04-09T13:39:51.605Z,7.70
2023-04-09T13:42:20.717Z,7.30
2023-04-09T13:44:48.525Z,7.93
2023-04-09T13:47:17.712Z,8.03
2023-04-09T13:49:45.754Z,8.70
2023-04-09T13:52:13.940Z,8.87
2023-04-09T13:54:41.718Z,8.97
2023-04-09T13:57:10.306Z,8.53
2023-04-09T13:59:41.591Z,9.00
2023-04-09T14:02:10.250Z,8.00
2023-04-09T14:04:38.346Z,8.00
2023-04-09T14:07:06.232Z,6.67
2023-04-09T14:09:34.041Z,6.33
2023-04-09T14:12:02.538Z,7.33
2023-04-09T14:14:30.271Z,7.90
2023-04-09T14:16:59.580Z,8.20
2023-04-09T14:19:27.314Z,7.00
2023-04-09T14:21:55.601Z,8.10
2023-04-09T14:24:23.480Z,7.00
2023-04-09T14:26:53.006Z,6.60
2023-04-09T14:29:21.447Z,7.73
2023-04-09T14:31:49.368Z,7.43
2023-04-09T14:34:18.517Z,8.00
2023-04-09T14:36:46.350Z,8.83
2023-04-09T14:39:14.124Z,7.00
2023-04-09T14:41:42.048Z,7.40
2023-04-09T14:44:09.871Z,7.13
2023-04-09T14:46:37.859Z,7.50
2023-04-09T14:49:05.654Z,6.90
2023-04-09T14:51:34.896Z,6.17
2023-04-09T14:54:02.754Z,6.80
2023-04-09T14:56:30.591Z,7.70
2023-04-09T14:58:58.548Z,7.33
2023-04-09T15:01:27.650Z,7.70
2023-04-09T15:03:55.997Z,7.77
2023-04-09T15:06:24.035Z,6.93
2023-04-09T15:08:53.347Z,7.03
2023-04-09T15:11:22.798Z,8.00
2023-04-09T15:13:50.656Z,7.70
2023-04-09T15:16:22.701Z,7.27
2023-04-09T15:18:51.986Z,8.60
2023-04-09T15:21:20.666Z,7.60
2023-04-09T15:23:48.488Z,7.50
2023-04-09T15:26:17.678Z,7.60
2023-04-09T15:28:46.088Z,7.70
2023-04-09T15:31:14.033Z,6.60
2023-04-09T15:33:43.647Z,6.90
2023-04-09T15:36:11.719Z,5.33
2023-04-09T15:38:39.582Z,7.27
2023-04-09T15:41:07.463Z,5.83
2023-04-09T15:43:36.598Z,6.40
2023-04-09T15:46:09.821Z,5.63
2023-04-09T15:48:38.004Z,5.40
2023-04-09T15:51:06.266Z,6.10
2023-04-09T15:53:34.189Z,6.47
2023-04-09T15:56:02.100Z,6.10
2023-04-09T15:58:29.851Z,5.40
2023-04-09T16:00:59.022Z,5.80
2023-04-09T16:03:27.678Z,6.60
2023-04-09T16:05:55.545Z,5.90
2023-04-09T16:08:23.365Z,6.30
2023-04-09T16:10:51.181Z,5.70
2023-04-09T16:13:18.979Z,6.30
2023-04-09T16:15:49.263Z,5.20
2023-04-09T16:18:18.466Z,5.53
2023-04-09T16:20:46.578Z,5.43
2023-04-09T16:23:14.441Z,5.40
2023-04-09T16:25:42.161Z,4.10
2023-04-09T16:28:09.942Z,5.20
2023-04-09T16:30:38.168Z,4.40
2023-04-09T16:33:06.316Z,5.80
2023-04-09T16:35:37.276Z,4.90
2023-04-09T16:38:07.398Z,4.80
2023-04-09T16:40:35.942Z,4.87
2023-04-09T16:43:03.726Z,5.17
2023-04-09T16:45:32.037Z,4.93
2023-04-09T16:47:59.919Z,5.23
2023-04-09T16:50:28.029Z,5.50
2023-04-09T16:52:57.141Z,5.03
2023-04-09T16:55:25.052Z,5.67
2023-04-09T16:57:52.859Z,5.70
2023-04-09T17:00:21.027Z,5.57
2023-04-09T17:02:49.151Z,5.20
2023-04-09T17:05:17.916Z,5.50
2023-04-09T17:07:45.856Z,5.37
2023-04-09T17:10:15.549Z,4.90
2023-04-09T17:12:43.624Z,5.20
2023-04-09T17:15:12.385Z,4.43
2023-04-09T17:17:40.294Z,4.60
2023-04-09T17:20:11.690Z,5.03
2023-04-09T17:22:39.905Z,4.50
2023-04-09T17:25:08.628Z,4.90
2023-04-09T17:27:37.790Z,5.40
2023-04-09T17:30:06.532Z,5.33
2023-04-09T17:32:34.420Z,5.60
2023-04-09T17:35:03.524Z,5.37
2023-04-09T17:37:31.361Z,4.90
2023-04-09T17:39:59.179Z,5.60
2023-04-09T17:42:27.266Z,5.57
2023-04-09T17:44:56.705Z,5.33
2023-04-09T17:47:24.777Z,4.30
2023-04-09T17:49:53.422Z,5.10
2023-04-09T17:52:21.266Z,4.60
2023-04-09T17:54:50.510Z,4.93
2023-04-09T17:57:18.350Z,4.77
2023-04-09T17:59:46.178Z,4.10
2023-04-09T18:02:15.396Z,4.57
2023-04-09T18:04:43.359Z,4.10
2023-04-09T18:07:11.423Z,5.30
2023-04-09T18:09:40.411Z,4.50
2023-04-09T18:12:08.363Z,4.60
2023-04-09T18:14:36.259Z,5.00
2023-04-09T18:17:04.159Z,5.20
2023-04-09T18:19:33.354Z,5.00
2023-04-09T18:22:01.226Z,5.50
2023-04-09T18:24:29.166Z,5.40
2023-04-09T18:26:57.569Z,5.13
2023-04-09T18:29:27.117Z,4.87
2023-04-09T18:31:58.039Z,5.10
2023-04-09T18:34:26.676Z,5.00
2023-04-09T18:36:56.146Z,5.67
2023-04-09T18:39:24.389Z,4.57
2023-04-09T18:41:52.209Z,4.90
2023-04-09T18:44:21.760Z,4.63
2023-04-09T18:46:49.589Z,5.10
2023-04-09T18:49:17.829Z,4.30
2023-04-09T18:51:45.583Z,4.70
2023-04-09T18:54:16.545Z,5.07
2023-04-09T18:56:45.970Z,5.77
2023-04-09T18:59:14.497Z,5.03
2023-04-09T19:01:42.490Z,4.90
2023-04-09T19:04:10.519Z,5.37
2023-04-09T19:06:38.470Z,5.23
2023-04-09T19:09:06.547Z,6.47
2023-04-09T19:11:35.744Z,7.63
2023-04-09T19:14:04.295Z,7.83
2023-04-09T19:16:32.158Z,11.83
2023-04-09T19:18:59.975Z,10.03
2023-04-09T19:21:28.744Z,9.73
2023-04-09T19:23:56.645Z,7.90
2023-04-09T19:26:24.904Z,9.07
2023-04-09T19:28:54.170Z,10.90
2023-04-09T19:31:22.382Z,9.63
2023-04-09T19:33:50.294Z,8.73
2023-04-09T19:36:18.149Z,8.60
2023-04-09T19:38:45.922Z,8.60
2023-04-09T19:41:13.725Z,10.10
2023-04-09T19:43:42.272Z,8.53
2023-04-09T19:46:11.422Z,6.40
2023-04-09T19:48:40.648Z,6.33
2023-04-09T19:51:08.516Z,7.57
2023-04-09T19:53:37.699Z,6.20
2023-04-09T19:56:06.219Z,7.30
2023-04-09T19:58:33.994Z,8.80
2023-04-09T20:01:01.943Z,7.63
2023-04-09T20:03:32.827Z,7.73
2023-04-09T20:06:00.898Z,8.10
2023-04-09T20:08:31.319Z,8.60
2023-04-09T20:10:59.104Z,10.10
2023-04-09T20:13:26.869Z,7.90
2023-04-09T20:15:54.643Z,7.53
2023-04-09T20:18:22.449Z,7.50
2023-04-09T20:20:52.925Z,7.57
2023-04-09T20:23:20.674Z,8.77
2023-04-09T20:25:52.892Z,18.20
2023-04-09T20:28:20.651Z,16.40
2023-04-09T20:30:48.382Z,16.77
2023-04-09T20:33:16.188Z,15.90
2023-04-09T20:35:44.024Z,14.70
2023-04-09T20:38:13.200Z,14.37
2023-04-09T20:40:41.130Z,13.27
2023-04-09T20:43:08.944Z,12.60
2023-04-09T20:45:36.754Z,10.93
2023-04-09T20:48:04.757Z,9.27
2023-04-09T20:50:32.761Z,10.70
2023-04-09T20:53:00.980Z,9.47
2023-04-09T20:55:30.503Z,9.63
2023-04-09T20:57:58.304Z,8.97
2023-04-09T21:00:26.260Z,10.37
2023-04-09T21:02:54.187Z,9.37
2023-04-09T21:05:24.011Z,9.87
2023-04-09T21:07:52.910Z,9.37
2023-04-09T21:10:21.031Z,9.10
2023-04-09T21:12:50.172Z,8.57
2023-04-09T21:15:18.082Z,8.70
2023-04-09T21:17:45.957Z,7.63
2023-04-09T21:20:15.009Z,8.17
2023-04-09T21:22:42.804Z,7.60
2023-04-09T21:25:12.118Z,8.40
2023-04-09T21:27:41.557Z,6.67
2023-04-09T21:30:11.528Z,8.30
2023-04-09T21:32:39.367Z,7.57
2023-04-09T21:35:07.627Z,6.40
2023-04-09T21:37:37.428Z,7.03
2023-04-09T21:40:06.041Z,6.53
2023-04-09T21:42:33.827Z,6.90
2023-04-09T21:45:02.239Z,7.10
2023-04-09T21:47:31.920Z,6.40
2023-04-09T21:49:59.906Z,6.07
2023-04-09T21:52:28.044Z,6.77
2023-04-09T21:54:55.864Z,6.80
2023-04-09T21:57:23.617Z,6.60
2023-04-09T21:59:51.403Z,6.33
2023-04-09T22:02:19.400Z,6.53
2023-04-09T22:04:48.729Z,6.47
2023-04-09T22:07:16.518Z,6.93
2023-04-09T22:09:44.263Z,7.00
2023-04-09T22:12:12.028Z,6.87
2023-04-09T22:14:41.707Z,6.73
2023-04-09T22:17:09.693Z,6.43
2023-04-09T22:19:37.489Z,7.57
2023-04-09T22:22:06.636Z,6.10
2023-04-09T22:24:34.410Z,6.30
2023-04-09T22:27:02.506Z,6.90
2023-04-09T22:29:30.521Z,6.40
2023-04-09T22:31:58.350Z,6.00
2023-04-09T22:34:26.317Z,6.30
2023-04-09T22:36:54.119Z,6.80
2023-04-09T22:39:23.301Z,7.27
2023-04-09T22:41:51.117Z,6.17
2023-04-09T22:44:19.050Z,7.33
2023-04-09T22:46:46.897Z,7.57
2023-04-09T22:49:14.766Z,7.60
2023-04-09T22:51:42.687Z,7.90
2023-04-09T22:54:10.617Z,7.07
2023-04-09T22:56:39.805Z,7.07
2023-04-09T23:01:43.471Z,7.63
2023-04-09T23:04:11.716Z,7.37
2023-04-09T23:06:39.495Z,7.63
2023-04-09T23:09:07.340Z,7.40
2023-04-09T23:11:36.635Z,7.60
2023-04-09T23:14:05.778Z,7.90
2023-04-09T23:16:33.612Z,5.80
2023-04-09T23:19:01.443Z,6.90
2023-04-09T23:21:29.266Z,6.60
2023-04-09T23:23:57.010Z,6.30
2023-04-09T23:26:24.987Z,6.50
2023-04-09T23:28:53.417Z,6.07
2023-04-09T23:31:22.776Z,6.17
2023-04-09T23:33:51.890Z,6.63
2023-04-09T23:36:19.835Z,7.17
2023-04-09T23:38:47.755Z,6.17
2023-04-09T23:41:15.549Z,6.73
2023-04-09T23:43:43.438Z,9.00
2023-04-09T23:46:11.384Z,6.33
2023-04-09T23:48:41.062Z,7.57
2023-04-09T23:51:08.951Z,6.83
2023-04-09T23:53:36.785Z,6.20
2023-04-09T23:56:05.565Z,6.70
2023-04-09T23:58:33.392Z,5.87
